This is the latest recevied weather packets stored in our database for station/object OM1PU-6. If no packets are shown the sender has not sent any weather packets the latest 10 day(s).
| Time | Temp. | Humidity | Pressure | Rain* | Wind** | Luminosity | Snow |
|---|---|---|---|---|---|---|---|
| 1788510359 | 26.11° C | 53% | 1015.9 hPa | 0 mm | - | - | - |
| 1788509460 | 24.44° C | 57% | 1015.8 hPa | 0 mm | - | - | - |
| 1788508559 | 24.44° C | 59% | 1015.5 hPa | 0 mm | - | - | - |
| 1788507660 | 25.56° C | 56% | 1015.8 hPa | 0 mm | - | - | - |
| 1788506759 | 24.44° C | 58% | 1015.5 hPa | 0 mm | - | - | - |
| 1788505860 | 23.89° C | 60% | 1015.6 hPa | 0 mm | - | - | - |
| 1788504960 | 23.33° C | 62% | 1015.9 hPa | 0 mm | - | - | - |
| 1788504059 | 22.78° C | 64% | 1015.8 hPa | 0 mm | - | - | - |
| 1788503159 | 22.78° C | 64% | 1015.7 hPa | 0 mm | - | - | - |
| 1788502260 | 22.78° C | 66% | 1015.5 hPa | 0 mm | - | - | - |
| 1788501359 | 21.11° C | 70% | 1015.4 hPa | 0 mm | - | - | - |
| 1788500460 | 20.56° C | 72% | 1015.3 hPa | 0 mm | - | - | - |
| 1788499560 | 20.56° C | 73% | 1015.3 hPa | 0 mm | - | - | - |
| 1788498660 | 20° C | 73% | 1015.2 hPa | 0 mm | - | - | - |
| 1788497759 | 20° C | 73% | 1015.4 hPa | 0 mm | - | - | - |
| 1788496860 | 20° C | 73% | 1015.3 hPa | 0 mm | - | - | - |
| 1788495960 | 20° C | 73% | 1015.5 hPa | 0 mm | - | - | - |
| 1788495059 | 20° C | 71% | 1015.2 hPa | 0 mm | - | - | - |
| 1788494160 | 20° C | 71% | 1015.2 hPa | 0 mm | - | - | - |
| 1788493259 | 20° C | 71% | 1015.4 hPa | 0 mm | - | - | - |
| 1788492359 | 20° C | 71% | 1015.4 hPa | 0 mm | - | - | - |
| 1788491460 | 20° C | 71% | 1015.3 hPa | 0 mm | - | - | - |
| 1788490560 | 20° C | 71% | 1015 hPa | 0 mm | - | - | - |
| 1788488760 | 20.56° C | 68% | 1015.2 hPa | 0 mm | - | - | - |
| 1788484260 | 20.56° C | 67% | 1015.9 hPa | 0 mm | - | - | - |
* Rain latest 24 hours (hover to see other rain measurements)
** Current wind speed in m/s (hover to see current wind gust speed)